sensor_id;sensor_type;location;lat;lon;timestamp;temperature;humidity
75442;DHT22;64019;48.312;14.226;2023-03-23T00:01:21;8.00;99.90
75442;DHT22;64019;48.312;14.226;2023-03-23T00:03:50;8.00;99.90
75442;DHT22;64019;48.312;14.226;2023-03-23T00:06:18;8.00;99.90
75442;DHT22;64019;48.312;14.226;2023-03-23T00:08:45;8.00;99.90
75442;DHT22;64019;48.312;14.226;2023-03-23T00:11:13;8.00;99.90
75442;DHT22;64019;48.312;14.226;2023-03-23T00:13:43;7.90;99.90
75442;DHT22;64019;48.312;14.226;2023-03-23T00:16:10;7.80;99.90
75442;DHT22;64019;48.312;14.226;2023-03-23T00:18:46;7.80;99.90
75442;DHT22;64019;48.312;14.226;2023-03-23T00:21:12;7.80;99.90
75442;DHT22;64019;48.312;14.226;2023-03-23T00:23:39;7.90;99.90
75442;DHT22;64019;48.312;14.226;2023-03-23T00:26:05;7.80;99.90
75442;DHT22;64019;48.312;14.226;2023-03-23T00:28:31;7.80;99.90
75442;DHT22;64019;48.312;14.226;2023-03-23T00:31:01;7.80;99.90
75442;DHT22;64019;48.312;14.226;2023-03-23T00:33:29;7.80;99.90
75442;DHT22;64019;48.312;14.226;2023-03-23T00:35:55;7.80;99.90
75442;DHT22;64019;48.312;14.226;2023-03-23T00:38:23;7.80;99.90
75442;DHT22;64019;48.312;14.226;2023-03-23T00:40:49;7.80;99.90
75442;DHT22;64019;48.312;14.226;2023-03-23T00:43:19;7.70;99.90
75442;DHT22;64019;48.312;14.226;2023-03-23T00:45:46;7.70;99.90
75442;DHT22;64019;48.312;14.226;2023-03-23T00:48:19;7.70;99.90
75442;DHT22;64019;48.312;14.226;2023-03-23T00:50:45;7.70;99.90
75442;DHT22;64019;48.312;14.226;2023-03-23T00:53:11;7.70;99.90
75442;DHT22;64019;48.312;14.226;2023-03-23T00:55:37;7.70;99.90
75442;DHT22;64019;48.312;14.226;2023-03-23T00:58:02;7.60;99.90
75442;DHT22;64019;48.312;14.226;2023-03-23T01:00:28;7.60;99.90
75442;DHT22;64019;48.312;14.226;2023-03-23T01:02:54;7.60;99.90
75442;DHT22;64019;48.312;14.226;2023-03-23T01:05:20;7.60;99.90
75442;DHT22;64019;48.312;14.226;2023-03-23T01:07:46;7.60;99.90
75442;DHT22;64019;48.312;14.226;2023-03-23T01:10:14;7.50;99.90
75442;DHT22;64019;48.312;14.226;2023-03-23T01:12:44;7.50;99.90
75442;DHT22;64019;48.312;14.226;2023-03-23T01:15:14;7.60;99.90
75442;DHT22;64019;48.312;14.226;2023-03-23T01:17:42;7.60;99.90
75442;DHT22;64019;48.312;14.226;2023-03-23T01:20:08;7.60;99.90
75442;DHT22;64019;48.312;14.226;2023-03-23T01:22:35;7.60;99.90
75442;DHT22;64019;48.312;14.226;2023-03-23T01:25:00;7.50;99.90
75442;DHT22;64019;48.312;14.226;2023-03-23T01:27:26;7.60;99.90
75442;DHT22;64019;48.312;14.226;2023-03-23T01:29:52;7.60;99.90
75442;DHT22;64019;48.312;14.226;2023-03-23T01:32:17;7.60;99.90
75442;DHT22;64019;48.312;14.226;2023-03-23T01:34:43;7.60;99.90
75442;DHT22;64019;48.312;14.226;2023-03-23T01:37:08;7.60;99.90
75442;DHT22;64019;48.312;14.226;2023-03-23T01:39:36;7.50;99.90
75442;DHT22;64019;48.312;14.226;2023-03-23T01:42:03;7.60;99.90
75442;DHT22;64019;48.312;14.226;2023-03-23T01:46:57;7.50;99.90
75442;DHT22;64019;48.312;14.226;2023-03-23T01:49:29;7.50;99.90
75442;DHT22;64019;48.312;14.226;2023-03-23T01:52:00;7.40;99.90
75442;DHT22;64019;48.312;14.226;2023-03-23T01:54:28;7.30;99.90
75442;DHT22;64019;48.312;14.226;2023-03-23T01:57:07;7.40;99.90
75442;DHT22;64019;48.312;14.226;2023-03-23T01:59:36;7.40;99.90
75442;DHT22;64019;48.312;14.226;2023-03-23T02:02:03;7.40;99.90
75442;DHT22;64019;48.312;14.226;2023-03-23T02:04:30;7.40;99.90
75442;DHT22;64019;48.312;14.226;2023-03-23T02:06:57;7.40;99.90
75442;DHT22;64019;48.312;14.226;2023-03-23T02:09:25;7.40;99.90
75442;DHT22;64019;48.312;14.226;2023-03-23T02:11:51;7.40;99.90
75442;DHT22;64019;48.312;14.226;2023-03-23T02:14:19;7.40;99.90
75442;DHT22;64019;48.312;14.226;2023-03-23T02:16:56;7.50;99.90
75442;DHT22;64019;48.312;14.226;2023-03-23T02:20:06;7.40;99.90
75442;DHT22;64019;48.312;14.226;2023-03-23T02:25:58;7.40;99.90
75442;DHT22;64019;48.312;14.226;2023-03-23T02:33:46;7.30;99.90
75442;DHT22;64019;48.312;14.226;2023-03-23T02:39:19;7.30;99.90
75442;DHT22;64019;48.312;14.226;2023-03-23T02:41:53;7.30;99.90
75442;DHT22;64019;48.312;14.226;2023-03-23T02:44:21;7.30;99.90
75442;DHT22;64019;48.312;14.226;2023-03-23T02:46:48;7.40;99.90
75442;DHT22;64019;48.312;14.226;2023-03-23T02:49:16;7.40;99.90
75442;DHT22;64019;48.312;14.226;2023-03-23T02:51:45;7.40;99.90
75442;DHT22;64019;48.312;14.226;2023-03-23T02:54:12;7.40;99.90
75442;DHT22;64019;48.312;14.226;2023-03-23T02:56:40;7.40;99.90
75442;DHT22;64019;48.312;14.226;2023-03-23T02:59:06;7.40;99.90
75442;DHT22;64019;48.312;14.226;2023-03-23T03:04:00;7.40;99.90
75442;DHT22;64019;48.312;14.226;2023-03-23T03:06:38;7.30;99.90
75442;DHT22;64019;48.312;14.226;2023-03-23T03:09:36;7.30;99.90
75442;DHT22;64019;48.312;14.226;2023-03-23T03:12:10;7.20;99.90
75442;DHT22;64019;48.312;14.226;2023-03-23T03:14:49;7.30;99.90
75442;DHT22;64019;48.312;14.226;2023-03-23T03:17:22;7.20;99.90
75442;DHT22;64019;48.312;14.226;2023-03-23T03:19:52;7.20;99.90
75442;DHT22;64019;48.312;14.226;2023-03-23T03:22:20;7.20;99.90
75442;DHT22;64019;48.312;14.226;2023-03-23T03:24:47;7.10;99.90
75442;DHT22;64019;48.312;14.226;2023-03-23T03:27:16;7.10;99.90
75442;DHT22;64019;48.312;14.226;2023-03-23T03:29:46;7.20;99.90
75442;DHT22;64019;48.312;14.226;2023-03-23T03:32:16;7.20;99.90
75442;DHT22;64019;48.312;14.226;2023-03-23T03:34:44;7.20;99.90
75442;DHT22;64019;48.312;14.226;2023-03-23T03:37:10;7.20;99.90
75442;DHT22;64019;48.312;14.226;2023-03-23T03:39:38;7.20;99.90
75442;DHT22;64019;48.312;14.226;2023-03-23T03:42:04;7.20;99.90
75442;DHT22;64019;48.312;14.226;2023-03-23T03:44:32;7.10;99.90
75442;DHT22;64019;48.312;14.226;2023-03-23T03:46:57;7.20;99.90
75442;DHT22;64019;48.312;14.226;2023-03-23T03:49:23;7.30;99.90
75442;DHT22;64019;48.312;14.226;2023-03-23T03:51:49;7.30;99.90
75442;DHT22;64019;48.312;14.226;2023-03-23T03:54:15;7.30;99.90
75442;DHT22;64019;48.312;14.226;2023-03-23T03:56:41;7.30;99.90
75442;DHT22;64019;48.312;14.226;2023-03-23T03:59:09;7.30;99.90
75442;DHT22;64019;48.312;14.226;2023-03-23T04:01:36;7.30;99.90
75442;DHT22;64019;48.312;14.226;2023-03-23T04:04:03;7.30;99.90
75442;DHT22;64019;48.312;14.226;2023-03-23T04:06:30;7.30;99.90
75442;DHT22;64019;48.312;14.226;2023-03-23T04:08:57;7.40;99.90
75442;DHT22;64019;48.312;14.226;2023-03-23T04:11:24;7.40;99.90
75442;DHT22;64019;48.312;14.226;2023-03-23T04:13:50;7.30;99.90
75442;DHT22;64019;48.312;14.226;2023-03-23T04:16:16;7.30;99.90
75442;DHT22;64019;48.312;14.226;2023-03-23T04:18:42;7.30;99.90
75442;DHT22;64019;48.312;14.226;2023-03-23T04:21:08;7.30;99.90
75442;DHT22;64019;48.312;14.226;2023-03-23T04:23:35;7.30;99.90
75442;DHT22;64019;48.312;14.226;2023-03-23T04:26:03;7.20;99.90
75442;DHT22;64019;48.312;14.226;2023-03-23T04:28:29;7.30;99.90
75442;DHT22;64019;48.312;14.226;2023-03-23T04:30:55;7.20;99.90
75442;DHT22;64019;48.312;14.226;2023-03-23T04:33:25;7.30;99.90
75442;DHT22;64019;48.312;14.226;2023-03-23T04:35:56;7.20;99.90
75442;DHT22;64019;48.312;14.226;2023-03-23T04:38:23;7.20;99.90
75442;DHT22;64019;48.312;14.226;2023-03-23T04:40:51;7.10;99.90
75442;DHT22;64019;48.312;14.226;2023-03-23T04:43:22;7.10;99.90
75442;DHT22;64019;48.312;14.226;2023-03-23T04:45:55;7.10;99.90
75442;DHT22;64019;48.312;14.226;2023-03-23T04:48:26;7.10;99.90
75442;DHT22;64019;48.312;14.226;2023-03-23T04:50:52;7.10;99.90
75442;DHT22;64019;48.312;14.226;2023-03-23T04:53:18;7.10;99.90
75442;DHT22;64019;48.312;14.226;2023-03-23T04:55:44;7.10;99.90
75442;DHT22;64019;48.312;14.226;2023-03-23T04:58:11;7.10;99.90
75442;DHT22;64019;48.312;14.226;2023-03-23T05:00:40;7.20;99.90
75442;DHT22;64019;48.312;14.226;2023-03-23T05:03:09;7.10;99.90
75442;DHT22;64019;48.312;14.226;2023-03-23T05:05:35;7.10;99.90
75442;DHT22;64019;48.312;14.226;2023-03-23T05:08:01;7.10;99.90
75442;DHT22;64019;48.312;14.226;2023-03-23T05:10:27;7.10;99.90
75442;DHT22;64019;48.312;14.226;2023-03-23T05:12:53;7.00;99.90
75442;DHT22;64019;48.312;14.226;2023-03-23T05:15:20;7.10;99.90
75442;DHT22;64019;48.312;14.226;2023-03-23T05:17:45;7.10;99.90
75442;DHT22;64019;48.312;14.226;2023-03-23T05:20:15;7.10;99.90
75442;DHT22;64019;48.312;14.226;2023-03-23T05:22:44;7.00;99.90
75442;DHT22;64019;48.312;14.226;2023-03-23T05:25:10;7.00;99.90
75442;DHT22;64019;48.312;14.226;2023-03-23T05:27:37;7.10;99.90
75442;DHT22;64019;48.312;14.226;2023-03-23T05:30:06;7.10;99.90
75442;DHT22;64019;48.312;14.226;2023-03-23T05:32:32;7.20;99.90
75442;DHT22;64019;48.312;14.226;2023-03-23T05:34:59;7.20;99.90
75442;DHT22;64019;48.312;14.226;2023-03-23T05:37:27;7.20;99.90
75442;DHT22;64019;48.312;14.226;2023-03-23T05:39:54;7.10;99.90
75442;DHT22;64019;48.312;14.226;2023-03-23T05:42:21;7.30;99.90
75442;DHT22;64019;48.312;14.226;2023-03-23T05:44:47;7.30;99.90
75442;DHT22;64019;48.312;14.226;2023-03-23T05:47:13;7.30;99.90
75442;DHT22;64019;48.312;14.226;2023-03-23T05:49:39;7.40;99.90
75442;DHT22;64019;48.312;14.226;2023-03-23T05:52:05;7.40;99.90
75442;DHT22;64019;48.312;14.226;2023-03-23T05:54:31;7.40;99.90
75442;DHT22;64019;48.312;14.226;2023-03-23T05:56:56;7.50;99.90
75442;DHT22;64019;48.312;14.226;2023-03-23T05:59:22;7.50;99.90
75442;DHT22;64019;48.312;14.226;2023-03-23T06:01:48;7.50;99.90
75442;DHT22;64019;48.312;14.226;2023-03-23T06:04:13;7.50;99.90
75442;DHT22;64019;48.312;14.226;2023-03-23T06:06:39;7.60;99.90
75442;DHT22;64019;48.312;14.226;2023-03-23T06:09:07;7.70;99.90
75442;DHT22;64019;48.312;14.226;2023-03-23T06:11:33;7.70;99.90
75442;DHT22;64019;48.312;14.226;2023-03-23T06:13:59;7.80;99.90
75442;DHT22;64019;48.312;14.226;2023-03-23T06:16:25;7.90;99.90
75442;DHT22;64019;48.312;14.226;2023-03-23T06:18:50;7.90;99.90
75442;DHT22;64019;48.312;14.226;2023-03-23T06:21:16;8.00;99.90
75442;DHT22;64019;48.312;14.226;2023-03-23T06:23:44;8.10;99.90
75442;DHT22;64019;48.312;14.226;2023-03-23T06:26:12;8.20;99.90
75442;DHT22;64019;48.312;14.226;2023-03-23T06:28:41;8.30;99.90
75442;DHT22;64019;48.312;14.226;2023-03-23T06:31:07;8.20;99.90
75442;DHT22;64019;48.312;14.226;2023-03-23T06:33:34;8.30;99.90
75442;DHT22;64019;48.312;14.226;2023-03-23T06:36:01;8.40;99.90
75442;DHT22;64019;48.312;14.226;2023-03-23T06:38:27;8.40;99.90
75442;DHT22;64019;48.312;14.226;2023-03-23T06:40:53;8.50;99.90
75442;DHT22;64019;48.312;14.226;2023-03-23T06:43:19;8.60;99.90
75442;DHT22;64019;48.312;14.226;2023-03-23T06:45:45;8.60;99.90
75442;DHT22;64019;48.312;14.226;2023-03-23T07:28:15;9.50;99.90
75442;DHT22;64019;48.312;14.226;2023-03-23T07:30:42;9.60;99.90
75442;DHT22;64019;48.312;14.226;2023-03-23T07:33:08;9.70;99.90
75442;DHT22;64019;48.312;14.226;2023-03-23T07:35:35;9.90;99.90
75442;DHT22;64019;48.312;14.226;2023-03-23T07:38:01;10.10;99.90
75442;DHT22;64019;48.312;14.226;2023-03-23T07:40:27;10.20;99.90
75442;DHT22;64019;48.312;14.226;2023-03-23T07:42:55;10.30;99.90
75442;DHT22;64019;48.312;14.226;2023-03-23T07:45:22;10.40;99.90
75442;DHT22;64019;48.312;14.226;2023-03-23T07:47:48;10.50;99.90
75442;DHT22;64019;48.312;14.226;2023-03-23T07:50:14;10.60;99.90
75442;DHT22;64019;48.312;14.226;2023-03-23T07:52:39;10.70;99.90
75442;DHT22;64019;48.312;14.226;2023-03-23T07:55:08;10.70;99.90
75442;DHT22;64019;48.312;14.226;2023-03-23T07:57:34;10.60;99.90
75442;DHT22;64019;48.312;14.226;2023-03-23T08:00:00;10.70;99.90
75442;DHT22;64019;48.312;14.226;2023-03-23T08:02:56;10.80;99.90
75442;DHT22;64019;48.312;14.226;2023-03-23T08:05:27;10.90;99.90
75442;DHT22;64019;48.312;14.226;2023-03-23T08:08:15;11.00;99.90
75442;DHT22;64019;48.312;14.226;2023-03-23T10:01:07;15.80;99.90
75442;DHT22;64019;48.312;14.226;2023-03-23T10:03:45;15.90;99.90
75442;DHT22;64019;48.312;14.226;2023-03-23T10:06:15;15.90;99.90
75442;DHT22;64019;48.312;14.226;2023-03-23T10:08:52;16.00;99.90
75442;DHT22;64019;48.312;14.226;2023-03-23T10:16:19;16.20;99.90
75442;DHT22;64019;48.312;14.226;2023-03-23T10:21:44;16.10;99.90
75442;DHT22;64019;48.312;14.226;2023-03-23T10:24:16;16.30;99.90
75442;DHT22;64019;48.312;14.226;2023-03-23T10:27:09;16.30;99.90
75442;DHT22;64019;48.312;14.226;2023-03-23T10:29:46;16.00;99.90
75442;DHT22;64019;48.312;14.226;2023-03-23T10:32:18;16.00;99.90
75442;DHT22;64019;48.312;14.226;2023-03-23T10:35:07;16.10;99.90
75442;DHT22;64019;48.312;14.226;2023-03-23T10:37:56;15.90;99.90
75442;DHT22;64019;48.312;14.226;2023-03-23T10:40:29;16.00;99.90
75442;DHT22;64019;48.312;14.226;2023-03-23T10:42:56;16.00;99.90
75442;DHT22;64019;48.312;14.226;2023-03-23T10:45:30;15.90;99.90
75442;DHT22;64019;48.312;14.226;2023-03-23T10:48:25;16.00;99.90
75442;DHT22;64019;48.312;14.226;2023-03-23T11:00:50;16.30;99.90
75442;DHT22;64019;48.312;14.226;2023-03-23T11:05:43;16.30;99.90
75442;DHT22;64019;48.312;14.226;2023-03-23T11:08:14;16.30;99.90
75442;DHT22;64019;48.312;14.226;2023-03-23T11:10:52;16.50;99.90
75442;DHT22;64019;48.312;14.226;2023-03-23T11:13:21;16.70;99.90
75442;DHT22;64019;48.312;14.226;2023-03-23T11:15:48;16.80;99.90
75442;DHT22;64019;48.312;14.226;2023-03-23T11:18:22;16.90;99.90
75442;DHT22;64019;48.312;14.226;2023-03-23T11:20:52;17.00;99.90
75442;DHT22;64019;48.312;14.226;2023-03-23T11:23:28;17.20;99.90
75442;DHT22;64019;48.312;14.226;2023-03-23T11:28:30;17.10;99.90
75442;DHT22;64019;48.312;14.226;2023-03-23T11:30:58;17.20;99.90
75442;DHT22;64019;48.312;14.226;2023-03-23T11:33:25;17.20;99.90
75442;DHT22;64019;48.312;14.226;2023-03-23T11:35:54;17.20;99.90
75442;DHT22;64019;48.312;14.226;2023-03-23T11:38:22;17.40;99.90
75442;DHT22;64019;48.312;14.226;2023-03-23T11:40:51;17.40;99.90
75442;DHT22;64019;48.312;14.226;2023-03-23T11:43:24;17.50;99.90
75442;DHT22;64019;48.312;14.226;2023-03-23T11:48:47;17.70;99.90
75442;DHT22;64019;48.312;14.226;2023-03-23T11:51:34;17.80;99.90
75442;DHT22;64019;48.312;14.226;2023-03-23T11:56:52;17.90;99.90
75442;DHT22;64019;48.312;14.226;2023-03-23T11:59:34;18.10;99.90
75442;DHT22;64019;48.312;14.226;2023-03-23T12:10:24;18.80;99.90
75442;DHT22;64019;48.312;14.226;2023-03-23T12:26:13;18.90;99.90
75442;DHT22;64019;48.312;14.226;2023-03-23T12:37:47;19.30;99.90
75442;DHT22;64019;48.312;14.226;2023-03-23T12:42:59;19.40;99.90
75442;DHT22;64019;48.312;14.226;2023-03-23T12:45:59;19.30;99.90
75442;DHT22;64019;48.312;14.226;2023-03-23T12:48:41;19.40;99.90
75442;DHT22;64019;48.312;14.226;2023-03-23T12:51:28;19.40;99.90
75442;DHT22;64019;48.312;14.226;2023-03-23T12:54:10;19.30;99.90
75442;DHT22;64019;48.312;14.226;2023-03-23T13:02:26;19.30;99.90
75442;DHT22;64019;48.312;14.226;2023-03-23T13:05:04;19.40;99.90
75442;DHT22;64019;48.312;14.226;2023-03-23T13:07:38;19.40;99.90
75442;DHT22;64019;48.312;14.226;2023-03-23T13:10:23;19.50;99.90
75442;DHT22;64019;48.312;14.226;2023-03-23T13:12:53;19.60;99.90
75442;DHT22;64019;48.312;14.226;2023-03-23T13:15:27;19.60;99.90
75442;DHT22;64019;48.312;14.226;2023-03-23T13:26:00;19.50;99.90
75442;DHT22;64019;48.312;14.226;2023-03-23T13:28:58;19.50;99.90
75442;DHT22;64019;48.312;14.226;2023-03-23T13:31:31;19.60;99.90
75442;DHT22;64019;48.312;14.226;2023-03-23T13:39:55;19.70;99.90
75442;DHT22;64019;48.312;14.226;2023-03-23T13:42:29;19.60;99.90
75442;DHT22;64019;48.312;14.226;2023-03-23T13:46:06;19.60;99.90
75442;DHT22;64019;48.312;14.226;2023-03-23T13:50:58;19.70;99.90
75442;DHT22;64019;48.312;14.226;2023-03-23T13:53:44;19.70;99.90
75442;DHT22;64019;48.312;14.226;2023-03-23T13:56:36;19.60;99.90
75442;DHT22;64019;48.312;14.226;2023-03-23T14:01:34;19.60;99.90
75442;DHT22;64019;48.312;14.226;2023-03-23T14:04:17;19.70;99.90
75442;DHT22;64019;48.312;14.226;2023-03-23T14:06:46;19.70;99.90
75442;DHT22;64019;48.312;14.226;2023-03-23T14:09:29;19.80;99.90
75442;DHT22;64019;48.312;14.226;2023-03-23T14:12:02;20.00;99.90
75442;DHT22;64019;48.312;14.226;2023-03-23T14:14:40;20.10;99.90
75442;DHT22;64019;48.312;14.226;2023-03-23T14:17:17;20.10;99.90
75442;DHT22;64019;48.312;14.226;2023-03-23T14:19:48;20.00;99.90
75442;DHT22;64019;48.312;14.226;2023-03-23T14:22:26;20.10;99.90
75442;DHT22;64019;48.312;14.226;2023-03-23T14:24:58;20.10;99.90
75442;DHT22;64019;48.312;14.226;2023-03-23T14:27:26;20.20;99.90
75442;DHT22;64019;48.312;14.226;2023-03-23T14:29:59;20.20;99.90
75442;DHT22;64019;48.312;14.226;2023-03-23T14:32:28;20.20;99.90
75442;DHT22;64019;48.312;14.226;2023-03-23T14:34:54;20.10;99.90
75442;DHT22;64019;48.312;14.226;2023-03-23T14:37:21;20.30;99.90
75442;DHT22;64019;48.312;14.226;2023-03-23T14:39:49;20.30;99.90
75442;DHT22;64019;48.312;14.226;2023-03-23T14:42:23;20.30;99.90
75442;DHT22;64019;48.312;14.226;2023-03-23T14:44:50;20.50;99.90
75442;DHT22;64019;48.312;14.226;2023-03-23T14:47:20;20.40;99.90
75442;DHT22;64019;48.312;14.226;2023-03-23T14:49:47;20.40;99.90
75442;DHT22;64019;48.312;14.226;2023-03-23T14:52:17;20.30;99.90
75442;DHT22;64019;48.312;14.226;2023-03-23T14:54:44;20.20;99.90
75442;DHT22;64019;48.312;14.226;2023-03-23T14:57:16;20.20;99.90
75442;DHT22;64019;48.312;14.226;2023-03-23T14:59:43;20.10;99.90
75442;DHT22;64019;48.312;14.226;2023-03-23T15:04:54;20.00;99.90
75442;DHT22;64019;48.312;14.226;2023-03-23T15:07:26;20.00;99.90
75442;DHT22;64019;48.312;14.226;2023-03-23T15:09:53;20.00;99.00
75442;DHT22;64019;48.312;14.226;2023-03-23T15:12:25;20.00;99.60
75442;DHT22;64019;48.312;14.226;2023-03-23T15:14:57;19.90;99.90
75442;DHT22;64019;48.312;14.226;2023-03-23T15:17:34;19.90;99.90
75442;DHT22;64019;48.312;14.226;2023-03-23T15:20:19;19.90;99.90
75442;DHT22;64019;48.312;14.226;2023-03-23T15:22:47;19.90;99.50
75442;DHT22;64019;48.312;14.226;2023-03-23T15:25:31;19.80;99.70
75442;DHT22;64019;48.312;14.226;2023-03-23T15:28:09;19.80;99.50
75442;DHT22;64019;48.312;14.226;2023-03-23T15:30:47;19.80;99.00
75442;DHT22;64019;48.312;14.226;2023-03-23T15:33:13;19.80;99.10
75442;DHT22;64019;48.312;14.226;2023-03-23T15:35:49;19.70;98.80
75442;DHT22;64019;48.312;14.226;2023-03-23T15:38:26;19.70;99.40
75442;DHT22;64019;48.312;14.226;2023-03-23T15:40:56;19.70;99.40
75442;DHT22;64019;48.312;14.226;2023-03-23T15:43:33;19.60;99.40
75442;DHT22;64019;48.312;14.226;2023-03-23T15:46:04;19.70;99.70
75442;DHT22;64019;48.312;14.226;2023-03-23T15:48:33;19.70;99.20
75442;DHT22;64019;48.312;14.226;2023-03-23T15:51:10;19.80;99.20
75442;DHT22;64019;48.312;14.226;2023-03-23T15:53:37;19.80;99.80
75442;DHT22;64019;48.312;14.226;2023-03-23T15:56:07;19.80;99.80
75442;DHT22;64019;48.312;14.226;2023-03-23T15:58:34;19.80;99.90
75442;DHT22;64019;48.312;14.226;2023-03-23T16:01:03;19.70;99.90
75442;DHT22;64019;48.312;14.226;2023-03-23T16:04:09;19.70;99.90
75442;DHT22;64019;48.312;14.226;2023-03-23T16:06:36;19.60;99.90
75442;DHT22;64019;48.312;14.226;2023-03-23T16:09:03;19.50;99.90
75442;DHT22;64019;48.312;14.226;2023-03-23T16:11:30;19.40;99.90
75442;DHT22;64019;48.312;14.226;2023-03-23T16:13:57;19.40;99.90
75442;DHT22;64019;48.312;14.226;2023-03-23T16:16:27;19.30;99.90
75442;DHT22;64019;48.312;14.226;2023-03-23T16:18:54;19.20;99.90
75442;DHT22;64019;48.312;14.226;2023-03-23T16:21:20;19.10;99.90
75442;DHT22;64019;48.312;14.226;2023-03-23T16:23:46;19.10;99.90
75442;DHT22;64019;48.312;14.226;2023-03-23T16:26:13;19.00;99.90
75442;DHT22;64019;48.312;14.226;2023-03-23T16:28:40;18.90;99.90
75442;DHT22;64019;48.312;14.226;2023-03-23T16:31:06;18.90;99.90
75442;DHT22;64019;48.312;14.226;2023-03-23T16:33:32;18.90;99.90
75442;DHT22;64019;48.312;14.226;2023-03-23T16:35:58;18.80;99.90
75442;DHT22;64019;48.312;14.226;2023-03-23T16:38:26;18.80;99.90
75442;DHT22;64019;48.312;14.226;2023-03-23T16:40:52;18.70;99.90
75442;DHT22;64019;48.312;14.226;2023-03-23T16:43:18;18.70;99.90
75442;DHT22;64019;48.312;14.226;2023-03-23T16:45:44;18.60;99.90
75442;DHT22;64019;48.312;14.226;2023-03-23T16:48:12;18.50;99.90
75442;DHT22;64019;48.312;14.226;2023-03-23T16:50:38;18.30;99.90
75442;DHT22;64019;48.312;14.226;2023-03-23T16:53:05;18.20;99.90
75442;DHT22;64019;48.312;14.226;2023-03-23T16:55:33;18.10;99.90
75442;DHT22;64019;48.312;14.226;2023-03-23T16:57:59;17.90;99.90
75442;DHT22;64019;48.312;14.226;2023-03-23T17:00:25;17.80;99.90
75442;DHT22;64019;48.312;14.226;2023-03-23T17:02:52;17.60;99.90
75442;DHT22;64019;48.312;14.226;2023-03-23T17:05:25;17.40;99.90
75442;DHT22;64019;48.312;14.226;2023-03-23T17:07:52;17.30;99.90
75442;DHT22;64019;48.312;14.226;2023-03-23T17:10:23;17.10;99.90
75442;DHT22;64019;48.312;14.226;2023-03-23T17:12:49;17.00;99.90
75442;DHT22;64019;48.312;14.226;2023-03-23T17:15:15;16.90;99.90
75442;DHT22;64019;48.312;14.226;2023-03-23T17:17:41;16.60;99.90
75442;DHT22;64019;48.312;14.226;2023-03-23T17:20:07;16.40;99.90
75442;DHT22;64019;48.312;14.226;2023-03-23T17:22:35;16.20;99.90
75442;DHT22;64019;48.312;14.226;2023-03-23T17:25:00;16.00;99.90
75442;DHT22;64019;48.312;14.226;2023-03-23T17:27:26;15.90;99.90
75442;DHT22;64019;48.312;14.226;2023-03-23T17:29:52;15.80;99.90
75442;DHT22;64019;48.312;14.226;2023-03-23T17:32:18;15.70;99.90
75442;DHT22;64019;48.312;14.226;2023-03-23T17:34:45;15.60;99.90
75442;DHT22;64019;48.312;14.226;2023-03-23T17:37:10;15.40;99.90
75442;DHT22;64019;48.312;14.226;2023-03-23T17:39:36;15.30;99.90
75442;DHT22;64019;48.312;14.226;2023-03-23T17:42:02;15.30;99.90
75442;DHT22;64019;48.312;14.226;2023-03-23T17:44:28;15.20;99.90
75442;DHT22;64019;48.312;14.226;2023-03-23T17:46:54;15.20;99.90
75442;DHT22;64019;48.312;14.226;2023-03-23T17:49:25;15.10;99.90
75442;DHT22;64019;48.312;14.226;2023-03-23T17:51:51;15.10;99.90
75442;DHT22;64019;48.312;14.226;2023-03-23T17:54:17;15.10;99.90
75442;DHT22;64019;48.312;14.226;2023-03-23T17:56:43;15.00;99.90
75442;DHT22;64019;48.312;14.226;2023-03-23T17:59:09;15.00;99.90
75442;DHT22;64019;48.312;14.226;2023-03-23T18:01:35;15.00;99.90
75442;DHT22;64019;48.312;14.226;2023-03-23T18:04:00;14.90;99.90
75442;DHT22;64019;48.312;14.226;2023-03-23T18:06:28;14.80;99.90
75442;DHT22;64019;48.312;14.226;2023-03-23T18:08:53;14.70;99.90
75442;DHT22;64019;48.312;14.226;2023-03-23T18:11:19;14.70;99.90
75442;DHT22;64019;48.312;14.226;2023-03-23T18:13:45;14.70;99.90
75442;DHT22;64019;48.312;14.226;2023-03-23T18:16:10;14.60;99.90
75442;DHT22;64019;48.312;14.226;2023-03-23T18:18:36;14.60;99.90
75442;DHT22;64019;48.312;14.226;2023-03-23T18:21:05;14.60;99.90
75442;DHT22;64019;48.312;14.226;2023-03-23T18:23:32;14.60;99.90
75442;DHT22;64019;48.312;14.226;2023-03-23T18:26:02;14.50;99.90
75442;DHT22;64019;48.312;14.226;2023-03-23T18:28:28;14.50;99.90
75442;DHT22;64019;48.312;14.226;2023-03-23T18:30:53;14.40;99.90
75442;DHT22;64019;48.312;14.226;2023-03-23T18:33:20;14.40;99.90
75442;DHT22;64019;48.312;14.226;2023-03-23T18:35:46;14.40;99.90
75442;DHT22;64019;48.312;14.226;2023-03-23T18:38:13;14.40;99.90
75442;DHT22;64019;48.312;14.226;2023-03-23T18:40:43;14.40;99.90
75442;DHT22;64019;48.312;14.226;2023-03-23T18:43:09;14.50;99.90
75442;DHT22;64019;48.312;14.226;2023-03-23T18:45:35;14.50;99.90
75442;DHT22;64019;48.312;14.226;2023-03-23T18:48:02;14.40;99.90
75442;DHT22;64019;48.312;14.226;2023-03-23T18:50:28;14.30;99.90
75442;DHT22;64019;48.312;14.226;2023-03-23T18:52:53;14.30;99.90
75442;DHT22;64019;48.312;14.226;2023-03-23T18:55:19;14.30;99.90
75442;DHT22;64019;48.312;14.226;2023-03-23T18:57:45;14.30;99.90
75442;DHT22;64019;48.312;14.226;2023-03-23T19:00:11;14.30;99.90
75442;DHT22;64019;48.312;14.226;2023-03-23T19:02:36;14.30;99.90
75442;DHT22;64019;48.312;14.226;2023-03-23T19:05:07;14.30;99.90
75442;DHT22;64019;48.312;14.226;2023-03-23T19:07:34;14.30;99.90
75442;DHT22;64019;48.312;14.226;2023-03-23T19:10:00;14.40;99.90
75442;DHT22;64019;48.312;14.226;2023-03-23T19:12:25;14.40;99.90
75442;DHT22;64019;48.312;14.226;2023-03-23T19:14:51;14.40;99.90
75442;DHT22;64019;48.312;14.226;2023-03-23T19:17:18;14.40;99.90
75442;DHT22;64019;48.312;14.226;2023-03-23T19:19:44;14.40;99.90
75442;DHT22;64019;48.312;14.226;2023-03-23T19:22:11;14.40;99.90
75442;DHT22;64019;48.312;14.226;2023-03-23T19:24:37;14.40;99.90
75442;DHT22;64019;48.312;14.226;2023-03-23T19:27:03;14.40;99.90
75442;DHT22;64019;48.312;14.226;2023-03-23T19:29:28;14.40;99.90
75442;DHT22;64019;48.312;14.226;2023-03-23T19:31:55;14.30;99.90
75442;DHT22;64019;48.312;14.226;2023-03-23T19:34:22;14.20;99.90
75442;DHT22;64019;48.312;14.226;2023-03-23T19:36:48;14.20;99.90
75442;DHT22;64019;48.312;14.226;2023-03-23T19:39:14;14.10;99.90
75442;DHT22;64019;48.312;14.226;2023-03-23T19:41:39;14.10;99.90
75442;DHT22;64019;48.312;14.226;2023-03-23T19:44:05;14.10;99.90
75442;DHT22;64019;48.312;14.226;2023-03-23T19:46:32;14.10;99.90
75442;DHT22;64019;48.312;14.226;2023-03-23T19:48:59;14.10;99.90
75442;DHT22;64019;48.312;14.226;2023-03-23T19:51:25;14.10;99.90
75442;DHT22;64019;48.312;14.226;2023-03-23T19:53:51;14.20;99.90